Delta Virtual Airport Information Service

Jeddah King Abdulaziz International Airport

ICAO: OEJN Country: Saudi Arabia
Latitude: 21.6796 Longitude: 39.1565
Latest Arrival : SVA1001 (1) (OERK-OEJN) Latest Departure : SVA1334 (OEJN-OEHL)


WX CaptureLIVE
Data provided by noaa.gov | Fetched at 07:18:00

METAR : OEJN 301300Z 31012KT CAVOK 29/16 Q1011 NOSIG

TAF : OEJN 301100Z 3012/0118 33014KT 8000 FEW040 BECMG 3020/3022 02008KT


Runway Data for OEJN
Data provided by openaviationdata.com

Runway ID Mag Var Hdg Length Elevation Surface ILS Freq ILS Id ILS Slope
16L 2 157° 12143 ft 48 ft Asphalt 108.5 IDFJ 3
16R 2 157° 12506 ft 48 ft Concrete 109.3 IJDD 3
16C 2 157° 10859 ft 48 ft Concrete 109.7 IJDC 3
34L 2 337° 12506 ft 48 ft Concrete 109.1 IJDL 3
34R 2 337° 12143 ft 48 ft Asphalt 108.3 IEAL 3
34C 2 337° 10859 ft 48 ft Concrete 109.5 IJDW 3

Jeddah King Abdulaziz International Airport, Saudi Arabia
Use only for reference purposes



Not for navigational purposes.